createdAt,value
2022-10-29T00:00:01.174Z,11.45
2022-10-29T00:05:11.894Z,10.00
2022-10-29T00:10:16.768Z,11.67
2022-10-29T00:15:20.191Z,12.20
2022-10-29T00:20:24.069Z,11.68
2022-10-29T00:25:28.932Z,11.88
2022-10-29T00:30:32.472Z,11.43
2022-10-29T00:35:35.830Z,10.80
2022-10-29T00:40:41.207Z,12.93
2022-10-29T00:45:49.874Z,12.38
2022-10-29T00:50:54.472Z,10.63
2022-10-29T00:56:00.431Z,10.35
2022-10-29T01:01:04.013Z,11.83
2022-10-29T01:06:08.484Z,9.07
2022-10-29T01:11:24.003Z,10.05
2022-10-29T01:16:33.473Z,10.60
2022-10-29T01:21:43.641Z,12.30
2022-10-29T01:27:23.452Z,11.60
2022-10-29T01:32:34.437Z,10.73
2022-10-29T01:37:47.859Z,10.73
2022-10-29T01:42:55.914Z,10.35
2022-10-29T01:48:05.873Z,11.30
2022-10-29T01:53:09.969Z,9.82
2022-10-29T01:58:14.603Z,10.32
2022-10-29T02:03:28.792Z,10.90
2022-10-29T02:08:40.186Z,12.23
2022-10-29T02:13:54.880Z,12.10
2022-10-29T02:19:00.739Z,11.45
2022-10-29T02:24:04.068Z,12.20
2022-10-29T02:29:07.388Z,11.97
2022-10-29T02:34:12.365Z,11.82
2022-10-29T02:39:15.717Z,12.05
2022-10-29T02:44:19.082Z,13.03
2022-10-29T02:49:23.875Z,11.87
2022-10-29T02:54:27.241Z,10.45
2022-10-29T02:59:30.539Z,11.65
2022-10-29T03:04:35.354Z,11.52
2022-10-29T03:09:38.645Z,10.68
2022-10-29T03:14:42.005Z,11.07
2022-10-29T03:19:46.693Z,12.07
2022-10-29T03:24:50.027Z,10.70
2022-10-29T03:29:53.331Z,12.32
2022-10-29T03:34:59.912Z,10.93
2022-10-29T03:40:03.834Z,12.45
2022-10-29T03:45:07.848Z,13.60
2022-10-29T03:50:12.906Z,16.10
2022-10-29T03:55:16.586Z,16.10
2022-10-29T04:00:20.058Z,17.80
2022-10-29T04:05:24.791Z,16.85
2022-10-29T04:10:28.150Z,15.95
2022-10-29T04:15:37.151Z,13.68
2022-10-29T04:21:36.705Z,14.60
2022-10-29T04:27:01.702Z,15.20
2022-10-29T04:31:29.310Z,13.83
2022-10-29T04:36:34.060Z,16.63
2022-10-29T04:41:37.473Z,13.82
2022-10-29T04:46:40.784Z,15.10
2022-10-29T04:51:45.491Z,14.32
2022-10-29T04:56:48.875Z,14.50
2022-10-29T05:01:52.270Z,14.88
2022-10-29T05:06:57.089Z,14.63
2022-10-29T05:12:00.496Z,16.02
2022-10-29T05:17:03.909Z,18.92
2022-10-29T05:22:08.575Z,16.08
2022-10-29T05:27:12.150Z,17.73
2022-10-29T05:57:34.197Z,20.50
2022-10-29T06:02:37.666Z,20.93
2022-10-29T06:07:43.729Z,21.33
2022-10-29T06:12:47.599Z,20.63
2022-10-29T06:17:51.416Z,20.90
2022-10-29T06:23:00.072Z,19.55
2022-10-29T06:28:05.124Z,17.40
2022-10-29T06:33:09.096Z,15.82
2022-10-29T06:38:14.148Z,15.03
2022-10-29T06:43:17.483Z,14.03
2022-10-29T06:48:22.512Z,18.73
2022-10-29T06:53:28.500Z,14.30
2022-10-29T06:58:31.877Z,14.93
2022-10-29T07:03:35.368Z,13.60
2022-10-29T07:08:40.018Z,13.32
2022-10-29T07:13:43.373Z,13.93
2022-10-29T07:18:46.782Z,14.67
2022-10-29T07:23:51.613Z,14.83
2022-10-29T07:28:58.480Z,15.27
2022-10-29T07:34:01.896Z,14.80
2022-10-29T07:39:07.477Z,15.50
2022-10-29T07:44:11.180Z,14.65
2022-10-29T07:49:14.569Z,13.20
2022-10-29T07:54:19.244Z,14.63
2022-10-29T07:59:22.626Z,16.15
2022-10-29T08:04:25.999Z,16.17
2022-10-29T08:09:30.749Z,15.10
2022-10-29T08:14:34.108Z,13.80
2022-10-29T08:19:37.436Z,14.40
2022-10-29T08:24:42.106Z,14.00
2022-10-29T08:29:45.380Z,13.30
2022-10-29T08:34:48.779Z,12.38
2022-10-29T08:39:53.532Z,12.88
2022-10-29T08:45:26.002Z,13.30
2022-10-29T08:50:31.983Z,12.60
2022-10-29T08:55:39.077Z,14.05
2022-10-29T09:00:44.122Z,12.32
2022-10-29T09:05:54.833Z,10.68
2022-10-29T09:11:08.235Z,11.88
2022-10-29T09:16:32.318Z,9.73
2022-10-29T09:21:43.916Z,8.75
2022-10-29T09:26:58.768Z,8.15
2022-10-29T09:32:06.343Z,7.13
2022-10-29T09:37:17.076Z,7.13
2022-10-29T09:42:35.447Z,7.57
2022-10-29T09:47:44.466Z,8.20
2022-10-29T09:52:50.681Z,8.50
2022-10-29T09:57:57.060Z,8.13
2022-10-29T10:03:06.045Z,7.73
2022-10-29T10:08:12.194Z,6.85
2022-10-29T10:13:18.985Z,7.10
2022-10-29T10:18:25.699Z,6.43
2022-10-29T10:23:31.223Z,6.47
2022-10-29T10:28:35.927Z,5.43
2022-10-29T10:33:50.413Z,6.30
2022-10-29T10:38:56.490Z,7.10
2022-10-29T10:44:04.791Z,6.40
2022-10-29T10:49:14.797Z,5.68
2022-10-29T10:54:35.086Z,5.80
2022-10-29T10:59:50.809Z,5.97
2022-10-29T11:05:03.588Z,5.72
2022-10-29T11:10:14.044Z,6.10
2022-10-29T11:15:28.319Z,5.93
2022-10-29T11:20:36.018Z,7.40
2022-10-29T11:25:45.526Z,6.32
2022-10-29T11:30:56.057Z,6.65
2022-10-29T11:36:04.423Z,6.60
2022-10-29T11:41:23.310Z,6.70
2022-10-29T11:46:35.158Z,5.90
2022-10-29T11:51:52.906Z,5.65
2022-10-29T11:57:00.202Z,6.13
2022-10-29T12:02:20.105Z,5.18
2022-10-29T12:07:33.273Z,5.20
2022-10-29T12:12:45.470Z,5.50
2022-10-29T12:18:00.303Z,5.10
2022-10-29T12:23:15.486Z,4.70
2022-10-29T12:28:24.074Z,5.05
2022-10-29T12:33:34.245Z,5.40
2022-10-29T12:38:41.966Z,5.40
2022-10-29T12:43:46.558Z,5.63
2022-10-29T12:48:59.392Z,5.37
2022-10-29T12:54:22.731Z,5.55
2022-10-29T12:59:33.632Z,5.47
2022-10-29T13:04:38.402Z,4.90
2022-10-29T13:09:44.317Z,5.05
2022-10-29T13:14:56.645Z,5.10
2022-10-29T13:20:05.176Z,5.67
2022-10-29T13:25:44.763Z,5.25
2022-10-29T13:30:49.641Z,5.27
2022-10-29T13:35:57.908Z,5.40
2022-10-29T13:41:17.221Z,5.72
2022-10-29T13:46:56.012Z,4.50
2022-10-29T13:52:04.100Z,4.93
2022-10-29T13:57:15.644Z,4.88
2022-10-29T14:02:36.899Z,5.25
2022-10-29T14:07:50.595Z,4.90
2022-10-29T14:12:59.104Z,4.75
2022-10-29T14:18:18.109Z,4.60
2022-10-29T14:23:22.829Z,4.40
2022-10-29T14:28:27.366Z,4.43
2022-10-29T14:33:32.639Z,4.40
2022-10-29T14:38:41.709Z,4.50
2022-10-29T14:43:48.009Z,5.35
2022-10-29T14:49:02.543Z,4.13
2022-10-29T14:54:09.287Z,4.33
2022-10-29T14:59:19.496Z,3.72
2022-10-29T15:04:26.252Z,4.15
2022-10-29T15:09:31.245Z,4.20
2022-10-29T15:14:40.571Z,4.40
2022-10-29T15:19:46.589Z,4.60
2022-10-29T15:24:53.284Z,4.97
2022-10-29T15:29:57.167Z,5.13
2022-10-29T15:35:01.233Z,15.85
2022-10-29T15:40:12.349Z,7.80
2022-10-29T15:45:22.105Z,17.35
2022-10-29T15:50:29.064Z,8.95
2022-10-29T15:55:35.894Z,15.60
2022-10-29T16:00:39.449Z,18.17
2022-10-29T16:05:43.575Z,15.10
2022-10-29T16:10:48.287Z,10.80
2022-10-29T16:15:51.739Z,14.60
2022-10-29T16:20:57.916Z,11.60
2022-10-29T16:26:02.660Z,10.98
2022-10-29T16:31:15.343Z,12.93
2022-10-29T16:36:19.065Z,15.55
2022-10-29T16:41:23.953Z,10.20
2022-10-29T16:46:27.810Z,9.40
2022-10-29T16:51:31.175Z,9.23
2022-10-29T16:56:35.882Z,9.50
2022-10-29T17:01:39.312Z,9.75
2022-10-29T17:06:42.616Z,11.05
2022-10-29T17:11:47.499Z,10.13
2022-10-29T17:16:51.040Z,11.17
2022-10-29T17:21:54.378Z,21.00
2022-10-29T17:26:59.834Z,10.70
2022-10-29T17:37:07.757Z,22.73
2022-10-29T17:42:12.443Z,27.60
2022-10-29T17:47:16.456Z,33.63
2022-10-29T17:52:19.875Z,13.38
2022-10-29T17:57:24.913Z,10.88
2022-10-29T18:02:28.541Z,12.23
2022-10-29T18:07:32.088Z,11.25
2022-10-29T18:12:37.034Z,12.55
2022-10-29T18:17:40.815Z,18.30
2022-10-29T18:22:44.255Z,15.32
2022-10-29T18:27:48.990Z,14.43
2022-10-29T18:32:52.478Z,23.73
2022-10-29T18:37:56.340Z,23.13
2022-10-29T18:43:01.439Z,16.48
2022-10-29T18:48:05.474Z,16.38
2022-10-29T18:53:08.945Z,18.50
2022-10-29T18:58:13.742Z,15.17
2022-10-29T19:03:17.681Z,13.07
2022-10-29T19:08:21.307Z,12.77
2022-10-29T19:13:26.324Z,12.43
2022-10-29T19:18:30.373Z,13.95
2022-10-29T19:23:34.197Z,14.65
2022-10-29T19:28:40.310Z,11.77
2022-10-29T19:33:44.099Z,12.53
2022-10-29T19:38:47.734Z,11.52
2022-10-29T19:43:52.489Z,10.77
2022-10-29T19:48:57.685Z,11.63
2022-10-29T19:54:02.472Z,11.70
2022-10-29T19:59:07.375Z,11.85
2022-10-29T20:04:10.992Z,11.30
2022-10-29T20:09:14.567Z,11.70
2022-10-29T20:14:19.633Z,11.50
2022-10-29T20:19:23.012Z,12.00
2022-10-29T20:24:26.423Z,11.70
2022-10-29T20:29:31.281Z,19.23
2022-10-29T20:34:34.684Z,15.10
2022-10-29T20:39:38.148Z,15.73
2022-10-29T20:44:43.363Z,15.18
2022-10-29T20:49:46.878Z,14.23
2022-10-29T20:54:50.254Z,12.50
2022-10-29T20:59:55.058Z,12.68
2022-10-29T21:04:58.381Z,11.33
2022-10-29T21:10:01.781Z,11.93
2022-10-29T21:15:07.475Z,11.35
2022-10-29T21:20:11.507Z,12.32
2022-10-29T21:25:15.101Z,11.65
2022-10-29T21:30:19.868Z,10.30
2022-10-29T21:35:23.412Z,10.90
2022-10-29T21:40:26.787Z,11.00
2022-10-29T21:45:31.524Z,11.07
2022-10-29T21:50:35.157Z,11.65
2022-10-29T21:55:38.597Z,10.90
2022-10-29T22:00:43.545Z,11.00
2022-10-29T22:05:47.063Z,11.20
2022-10-29T22:10:50.495Z,11.27
2022-10-29T22:15:55.409Z,11.77
2022-10-29T22:21:07.115Z,10.65
2022-10-29T22:26:10.519Z,10.73
2022-10-29T22:31:15.938Z,11.10
2022-10-29T22:36:22.041Z,11.43
2022-10-29T22:41:26.937Z,12.15
2022-10-29T22:46:31.976Z,10.82
2022-10-29T22:51:36.091Z,11.13
2022-10-29T22:56:40.805Z,11.50
2022-10-29T23:01:45.956Z,11.70
2022-10-29T23:06:49.515Z,11.20
2022-10-29T23:11:52.795Z,11.15
2022-10-29T23:16:57.466Z,10.73
2022-10-29T23:22:00.944Z,11.30
2022-10-29T23:27:04.358Z,11.70
2022-10-29T23:32:09.100Z,12.32
2022-10-29T23:37:12.456Z,10.55
2022-10-29T23:42:15.789Z,11.23
2022-10-29T23:47:20.605Z,11.38
2022-10-29T23:52:23.945Z,10.23
2022-10-29T23:57:27.296Z,9.93
